Terminal Aerodrome Forecast
Issued by NWS

Home | Current Version | Previous Version | Text Only | Print | Product List | Glossary On
Versions: 1 2 3 4 5 6 7 8 9 10 11 12 13 14 15 16 17 18 19 20 21 22 23 24 25 26 27 28
000
FTUS46 KPQR 010520
TAFONP
TAF
KONP 010520Z 0106/0206 19013G23KT P6SM VCSH SCT020 BKN060
      TEMPO 0106/0110 -SHRA BKN020
     FM011700 19017G28KT P6SM -SHRA BKN025
     FM020100 19008KT P6SM -SHRA SCT025 BKN040=

USA.gov is the U.S. government's official web portal to all federal, state and local government web resources and services.